sensor_id;sensor_type;location;lat;lon;timestamp;P1;durP1;ratioP1;P2;durP2;ratioP2
51515;SDS011;37603;55.614;37.326;2022-11-20T00:00:10;13.6;;;10.9;;
51515;SDS011;37603;55.614;37.326;2022-11-20T00:06:09;12.5;;;10.4;;
51515;SDS011;37603;55.614;37.326;2022-11-20T00:12:06;9.6;;;4.4;;
51515;SDS011;37603;55.614;37.326;2022-11-20T00:18:05;13.2;;;11.1;;
51515;SDS011;37603;55.614;37.326;2022-11-20T00:24:04;15.1;;;12.0;;
51515;SDS011;37603;55.614;37.326;2022-11-20T00:30:02;15.7;;;12.7;;
51515;SDS011;37603;55.614;37.326;2022-11-20T00:36:01;15.3;;;11.8;;
51515;SDS011;37603;55.614;37.326;2022-11-20T00:41:59;15.9;;;13.0;;
51515;SDS011;37603;55.614;37.326;2022-11-20T00:47:58;17.2;;;13.5;;
51515;SDS011;37603;55.614;37.326;2022-11-20T00:53:56;10.5;;;5.3;;
51515;SDS011;37603;55.614;37.326;2022-11-20T00:59:55;10.1;;;5.0;;
51515;SDS011;37603;55.614;37.326;2022-11-20T01:05:53;9.0;;;4.6;;
51515;SDS011;37603;55.614;37.326;2022-11-20T01:11:52;15.7;;;12.3;;
51515;SDS011;37603;55.614;37.326;2022-11-20T01:17:50;15.1;;;12.2;;
51515;SDS011;37603;55.614;37.326;2022-11-20T01:23:49;14.0;;;11.5;;
51515;SDS011;37603;55.614;37.326;2022-11-20T01:29:47;9.1;;;4.8;;
51515;SDS011;37603;55.614;37.326;2022-11-20T01:35:46;13.1;;;10.7;;
51515;SDS011;37603;55.614;37.326;2022-11-20T01:41:45;13.4;;;10.8;;
51515;SDS011;37603;55.614;37.326;2022-11-20T01:47:44;12.8;;;10.2;;
51515;SDS011;37603;55.614;37.326;2022-11-20T01:53:42;14.3;;;11.9;;
51515;SDS011;37603;55.614;37.326;2022-11-20T01:59:43;14.6;;;11.8;;
51515;SDS011;37603;55.614;37.326;2022-11-20T02:05:41;16.6;;;13.2;;
51515;SDS011;37603;55.614;37.326;2022-11-20T02:11:38;16.7;;;12.7;;
51515;SDS011;37603;55.614;37.326;2022-11-20T02:17:36;12.6;;;5.8;;
51515;SDS011;37603;55.614;37.326;2022-11-20T02:23:36;17.0;;;13.3;;
51515;SDS011;37603;55.614;37.326;2022-11-20T02:29:34;16.5;;;13.3;;
51515;SDS011;37603;55.614;37.326;2022-11-20T02:35:38;18.0;;;13.9;;
51515;SDS011;37603;55.614;37.326;2022-11-20T02:41:31;16.5;;;14.1;;
51515;SDS011;37603;55.614;37.326;2022-11-20T02:47:29;12.5;;;5.5;;
51515;SDS011;37603;55.614;37.326;2022-11-20T02:53:27;11.1;;;5.2;;
51515;SDS011;37603;55.614;37.326;2022-11-20T02:59:26;11.5;;;5.5;;
51515;SDS011;37603;55.614;37.326;2022-11-20T03:05:25;10.6;;;5.4;;
51515;SDS011;37603;55.614;37.326;2022-11-20T03:11:23;12.9;;;5.6;;
51515;SDS011;37603;55.614;37.326;2022-11-20T03:17:22;8.7;;;4.6;;
51515;SDS011;37603;55.614;37.326;2022-11-20T03:23:20;11.0;;;5.4;;
51515;SDS011;37603;55.614;37.326;2022-11-20T03:29:19;10.0;;;5.0;;
51515;SDS011;37603;55.614;37.326;2022-11-20T03:35:17;12.0;;;5.2;;
51515;SDS011;37603;55.614;37.326;2022-11-20T03:41:17;16.3;;;12.9;;
51515;SDS011;37603;55.614;37.326;2022-11-20T03:47:15;11.0;;;5.6;;
51515;SDS011;37603;55.614;37.326;2022-11-20T03:53:13;15.9;;;12.9;;
51515;SDS011;37603;55.614;37.326;2022-11-20T03:59:12;12.7;;;5.5;;
51515;SDS011;37603;55.614;37.326;2022-11-20T04:05:10;15.3;;;13.0;;
51515;SDS011;37603;55.614;37.326;2022-11-20T04:11:10;15.8;;;13.1;;
51515;SDS011;37603;55.614;37.326;2022-11-20T04:17:07;9.1;;;5.3;;
51515;SDS011;37603;55.614;37.326;2022-11-20T04:23:06;12.9;;;5.6;;
51515;SDS011;37603;55.614;37.326;2022-11-20T04:29:04;9.8;;;5.4;;
51515;SDS011;37603;55.614;37.326;2022-11-20T04:35:03;16.2;;;13.1;;
51515;SDS011;37603;55.614;37.326;2022-11-20T04:41:02;15.4;;;12.0;;
51515;SDS011;37603;55.614;37.326;2022-11-20T04:47:00;11.2;;;5.1;;
51515;SDS011;37603;55.614;37.326;2022-11-20T04:52:58;11.7;;;5.2;;
51515;SDS011;37603;55.614;37.326;2022-11-20T04:58:59;15.4;;;12.4;;
51515;SDS011;37603;55.614;37.326;2022-11-20T05:04:55;17.1;;;13.3;;
51515;SDS011;37603;55.614;37.326;2022-11-20T05:10:58;16.9;;;13.1;;
51515;SDS011;37603;55.614;37.326;2022-11-20T05:16:52;15.7;;;12.4;;
51515;SDS011;37603;55.614;37.326;2022-11-20T05:22:51;16.3;;;13.1;;
51515;SDS011;37603;55.614;37.326;2022-11-20T05:28:50;19.5;;;13.8;;
51515;SDS011;37603;55.614;37.326;2022-11-20T05:34:48;11.0;;;5.5;;
51515;SDS011;37603;55.614;37.326;2022-11-20T05:40:47;17.0;;;13.7;;
51515;SDS011;37603;55.614;37.326;2022-11-20T05:46:45;18.3;;;14.2;;
51515;SDS011;37603;55.614;37.326;2022-11-20T05:52:44;15.6;;;7.0;;
51515;SDS011;37603;55.614;37.326;2022-11-20T05:58:43;18.9;;;14.2;;
51515;SDS011;37603;55.614;37.326;2022-11-20T06:04:41;19.2;;;14.4;;
51515;SDS011;37603;55.614;37.326;2022-11-20T06:10:39;11.6;;;5.6;;
51515;SDS011;37603;55.614;37.326;2022-11-20T06:16:38;18.5;;;14.0;;
51515;SDS011;37603;55.614;37.326;2022-11-20T06:22:37;18.7;;;13.7;;
51515;SDS011;37603;55.614;37.326;2022-11-20T06:28:35;16.7;;;13.0;;
51515;SDS011;37603;55.614;37.326;2022-11-20T06:34:34;18.1;;;13.7;;
51515;SDS011;37603;55.614;37.326;2022-11-20T06:40:32;17.5;;;13.8;;
51515;SDS011;37603;55.614;37.326;2022-11-20T06:46:31;16.9;;;13.8;;
51515;SDS011;37603;55.614;37.326;2022-11-20T06:52:29;15.2;;;6.6;;
51515;SDS011;37603;55.614;37.326;2022-11-20T06:58:28;20.1;;;14.2;;
51515;SDS011;37603;55.614;37.326;2022-11-20T07:04:26;20.9;;;14.6;;
51515;SDS011;37603;55.614;37.326;2022-11-20T07:10:25;21.0;;;14.9;;
51515;SDS011;37603;55.614;37.326;2022-11-20T07:16:24;18.9;;;14.0;;
51515;SDS011;37603;55.614;37.326;2022-11-20T07:22:22;21.0;;;14.7;;
51515;SDS011;37603;55.614;37.326;2022-11-20T07:28:21;20.2;;;15.2;;
51515;SDS011;37603;55.614;37.326;2022-11-20T07:34:19;16.7;;;7.2;;
51515;SDS011;37603;55.614;37.326;2022-11-20T07:40:18;21.9;;;15.6;;
51515;SDS011;37603;55.614;37.326;2022-11-20T07:46:16;22.3;;;15.6;;
51515;SDS011;37603;55.614;37.326;2022-11-20T07:52:15;22.6;;;15.8;;
51515;SDS011;37603;55.614;37.326;2022-11-20T07:58:14;24.2;;;15.9;;
51515;SDS011;37603;55.614;37.326;2022-11-20T08:04:12;25.2;;;16.8;;
51515;SDS011;37603;55.614;37.326;2022-11-20T08:10:11;22.7;;;16.8;;
51515;SDS011;37603;55.614;37.326;2022-11-20T08:16:09;25.8;;;17.9;;
51515;SDS011;37603;55.614;37.326;2022-11-20T08:22:08;26.4;;;19.0;;
51515;SDS011;37603;55.614;37.326;2022-11-20T08:28:07;28.0;;;19.7;;
51515;SDS011;37603;55.614;37.326;2022-11-20T08:40:04;19.8;;;9.1;;
51515;SDS011;37603;55.614;37.326;2022-11-20T08:46:02;28.8;;;20.2;;
51515;SDS011;37603;55.614;37.326;2022-11-20T08:52:01;28.5;;;20.1;;
51515;SDS011;37603;55.614;37.326;2022-11-20T08:58:02;29.2;;;19.2;;
51515;SDS011;37603;55.614;37.326;2022-11-20T09:03:58;26.6;;;18.9;;
51515;SDS011;37603;55.614;37.326;2022-11-20T09:09:56;31.1;;;19.4;;
51515;SDS011;37603;55.614;37.326;2022-11-20T09:15:55;30.0;;;19.6;;
51515;SDS011;37603;55.614;37.326;2022-11-20T09:21:53;30.7;;;21.2;;
51515;SDS011;37603;55.614;37.326;2022-11-20T09:27:54;29.9;;;20.3;;
51515;SDS011;37603;55.614;37.326;2022-11-20T09:33:51;30.6;;;20.0;;
51515;SDS011;37603;55.614;37.326;2022-11-20T09:39:49;32.0;;;20.9;;
51515;SDS011;37603;55.614;37.326;2022-11-20T09:45:50;30.1;;;20.1;;
51515;SDS011;37603;55.614;37.326;2022-11-20T09:51:49;31.4;;;21.0;;
51515;SDS011;37603;55.614;37.326;2022-11-20T09:57:46;32.7;;;21.4;;
51515;SDS011;37603;55.614;37.326;2022-11-20T10:03:46;30.9;;;21.1;;
51515;SDS011;37603;55.614;37.326;2022-11-20T10:09:43;33.3;;;21.2;;
51515;SDS011;37603;55.614;37.326;2022-11-20T10:15:42;26.2;;;17.9;;
51515;SDS011;37603;55.614;37.326;2022-11-20T10:21:41;26.5;;;17.7;;
51515;SDS011;37603;55.614;37.326;2022-11-20T10:27:41;26.6;;;17.1;;
51515;SDS011;37603;55.614;37.326;2022-11-20T10:33:37;23.1;;;17.1;;
51515;SDS011;37603;55.614;37.326;2022-11-20T10:39:36;22.3;;;16.3;;
51515;SDS011;37603;55.614;37.326;2022-11-20T10:45:36;15.4;;;12.4;;
51515;SDS011;37603;55.614;37.326;2022-11-20T10:51:35;15.6;;;11.9;;
51515;SDS011;37603;55.614;37.326;2022-11-20T10:57:34;12.8;;;6.2;;
51515;SDS011;37603;55.614;37.326;2022-11-20T11:03:30;20.5;;;13.0;;
51515;SDS011;37603;55.614;37.326;2022-11-20T11:09:30;15.8;;;12.6;;
51515;SDS011;37603;55.614;37.326;2022-11-20T11:15:28;19.2;;;14.5;;
51515;SDS011;37603;55.614;37.326;2022-11-20T11:21:25;15.1;;;7.2;;
51515;SDS011;37603;55.614;37.326;2022-11-20T11:27:23;23.9;;;17.6;;
51515;SDS011;37603;55.614;37.326;2022-11-20T11:33:22;20.0;;;15.5;;
51515;SDS011;37603;55.614;37.326;2022-11-20T11:39:21;22.0;;;16.7;;
51515;SDS011;37603;55.614;37.326;2022-11-20T11:45:19;18.5;;;14.4;;
51515;SDS011;37603;55.614;37.326;2022-11-20T11:51:19;21.0;;;15.8;;
51515;SDS011;37603;55.614;37.326;2022-11-20T11:57:18;17.7;;;13.9;;
51515;SDS011;37603;55.614;37.326;2022-11-20T12:03:16;16.5;;;6.9;;
51515;SDS011;37603;55.614;37.326;2022-11-20T12:09:14;20.5;;;16.1;;
51515;SDS011;37603;55.614;37.326;2022-11-20T12:15:13;14.0;;;7.3;;
51515;SDS011;37603;55.614;37.326;2022-11-20T12:21:16;19.9;;;15.3;;
51515;SDS011;37603;55.614;37.326;2022-11-20T12:33:12;13.8;;;6.5;;
51515;SDS011;37603;55.614;37.326;2022-11-20T12:39:12;16.7;;;7.1;;
51515;SDS011;37603;55.614;37.326;2022-11-20T12:45:09;20.5;;;15.3;;
51515;SDS011;37603;55.614;37.326;2022-11-20T12:51:09;21.9;;;16.2;;
51515;SDS011;37603;55.614;37.326;2022-11-20T12:57:03;15.0;;;7.1;;
51515;SDS011;37603;55.614;37.326;2022-11-20T13:03:06;19.7;;;15.1;;
51515;SDS011;37603;55.614;37.326;2022-11-20T13:08:59;20.1;;;15.1;;
51515;SDS011;37603;55.614;37.326;2022-11-20T13:14:58;20.0;;;15.3;;
51515;SDS011;37603;55.614;37.326;2022-11-20T13:20:56;12.5;;;5.9;;
51515;SDS011;37603;55.614;37.326;2022-11-20T13:27:03;20.0;;;15.5;;
51515;SDS011;37603;55.614;37.326;2022-11-20T13:32:54;17.2;;;7.4;;
51515;SDS011;37603;55.614;37.326;2022-11-20T13:38:53;18.7;;;7.3;;
51515;SDS011;37603;55.614;37.326;2022-11-20T13:44:53;16.7;;;6.8;;
51515;SDS011;37603;55.614;37.326;2022-11-20T13:50:54;41.6;;;14.3;;
51515;SDS011;37603;55.614;37.326;2022-11-20T13:56:51;24.6;;;10.5;;
51515;SDS011;37603;55.614;37.326;2022-11-20T14:02:50;20.7;;;16.6;;
51515;SDS011;37603;55.614;37.326;2022-11-20T14:08:46;21.1;;;9.6;;
51515;SDS011;37603;55.614;37.326;2022-11-20T14:14:47;24.2;;;18.0;;
51515;SDS011;37603;55.614;37.326;2022-11-20T14:20:42;20.6;;;9.3;;
51515;SDS011;37603;55.614;37.326;2022-11-20T14:26:41;22.8;;;16.8;;
51515;SDS011;37603;55.614;37.326;2022-11-20T14:32:39;20.8;;;16.8;;
51515;SDS011;37603;55.614;37.326;2022-11-20T14:38:38;22.2;;;16.3;;
51515;SDS011;37603;55.614;37.326;2022-11-20T14:44:36;21.4;;;16.5;;
51515;SDS011;37603;55.614;37.326;2022-11-20T14:50:35;16.5;;;7.5;;
51515;SDS011;37603;55.614;37.326;2022-11-20T14:56:33;17.6;;;7.8;;
51515;SDS011;37603;55.614;37.326;2022-11-20T15:02:32;16.3;;;7.5;;
51515;SDS011;37603;55.614;37.326;2022-11-20T15:08:31;23.6;;;17.7;;
51515;SDS011;37603;55.614;37.326;2022-11-20T15:14:30;22.3;;;17.0;;
51515;SDS011;37603;55.614;37.326;2022-11-20T15:20:28;15.6;;;7.8;;
51515;SDS011;37603;55.614;37.326;2022-11-20T15:26:26;21.5;;;16.7;;
51515;SDS011;37603;55.614;37.326;2022-11-20T15:32:25;22.3;;;17.9;;
51515;SDS011;37603;55.614;37.326;2022-11-20T15:38:23;18.4;;;8.9;;
51515;SDS011;37603;55.614;37.326;2022-11-20T15:44:21;18.1;;;9.0;;
51515;SDS011;37603;55.614;37.326;2022-11-20T15:50:20;17.6;;;7.9;;
51515;SDS011;37603;55.614;37.326;2022-11-20T15:56:19;14.8;;;7.0;;
51515;SDS011;37603;55.614;37.326;2022-11-20T16:02:17;21.7;;;16.8;;
51515;SDS011;37603;55.614;37.326;2022-11-20T16:08:16;17.7;;;7.7;;
51515;SDS011;37603;55.614;37.326;2022-11-20T16:14:14;20.7;;;15.9;;
51515;SDS011;37603;55.614;37.326;2022-11-20T16:20:13;13.7;;;7.0;;
51515;SDS011;37603;55.614;37.326;2022-11-20T16:26:12;16.1;;;7.2;;
51515;SDS011;37603;55.614;37.326;2022-11-20T16:32:10;15.9;;;6.7;;
51515;SDS011;37603;55.614;37.326;2022-11-20T16:38:08;17.3;;;8.0;;
51515;SDS011;37603;55.614;37.326;2022-11-20T16:44:07;16.5;;;7.5;;
51515;SDS011;37603;55.614;37.326;2022-11-20T16:50:06;17.5;;;8.5;;
51515;SDS011;37603;55.614;37.326;2022-11-20T16:56:11;20.0;;;8.4;;
51515;SDS011;37603;55.614;37.326;2022-11-20T17:02:03;22.6;;;17.4;;
51515;SDS011;37603;55.614;37.326;2022-11-20T17:08:01;12.5;;;6.6;;
51515;SDS011;37603;55.614;37.326;2022-11-20T17:13:59;21.4;;;16.3;;
51515;SDS011;37603;55.614;37.326;2022-11-20T17:19:58;14.5;;;6.8;;
51515;SDS011;37603;55.614;37.326;2022-11-20T17:26:00;19.5;;;8.0;;
51515;SDS011;37603;55.614;37.326;2022-11-20T17:31:55;21.6;;;16.2;;
51515;SDS011;37603;55.614;37.326;2022-11-20T17:37:53;22.6;;;16.7;;
51515;SDS011;37603;55.614;37.326;2022-11-20T17:43:52;16.4;;;7.4;;
51515;SDS011;37603;55.614;37.326;2022-11-20T17:49:50;16.7;;;7.6;;
51515;SDS011;37603;55.614;37.326;2022-11-20T17:55:53;20.4;;;15.9;;
51515;SDS011;37603;55.614;37.326;2022-11-20T18:01:47;18.0;;;7.9;;
51515;SDS011;37603;55.614;37.326;2022-11-20T18:07:46;21.6;;;16.8;;
51515;SDS011;37603;55.614;37.326;2022-11-20T18:13:45;15.6;;;7.3;;
51515;SDS011;37603;55.614;37.326;2022-11-20T18:19:43;15.5;;;7.3;;
51515;SDS011;37603;55.614;37.326;2022-11-20T18:25:41;15.8;;;6.8;;
51515;SDS011;37603;55.614;37.326;2022-11-20T18:31:40;18.5;;;7.4;;
51515;SDS011;37603;55.614;37.326;2022-11-20T18:37:38;25.0;;;17.4;;
51515;SDS011;37603;55.614;37.326;2022-11-20T18:43:37;24.1;;;16.7;;
51515;SDS011;37603;55.614;37.326;2022-11-20T18:49:35;18.4;;;8.2;;
51515;SDS011;37603;55.614;37.326;2022-11-20T18:55:34;26.1;;;18.4;;
51515;SDS011;37603;55.614;37.326;2022-11-20T19:01:32;20.3;;;8.3;;
51515;SDS011;37603;55.614;37.326;2022-11-20T19:07:31;19.2;;;8.4;;
51515;SDS011;37603;55.614;37.326;2022-11-20T19:13:31;23.8;;;18.2;;
51515;SDS011;37603;55.614;37.326;2022-11-20T19:19:28;18.8;;;7.6;;
51515;SDS011;37603;55.614;37.326;2022-11-20T19:25:26;16.1;;;7.5;;
51515;SDS011;37603;55.614;37.326;2022-11-20T19:31:25;25.1;;;17.7;;
51515;SDS011;37603;55.614;37.326;2022-11-20T19:37:23;22.3;;;17.9;;
51515;SDS011;37603;55.614;37.326;2022-11-20T19:43:22;17.9;;;7.3;;
51515;SDS011;37603;55.614;37.326;2022-11-20T19:49:20;18.6;;;7.7;;
51515;SDS011;37603;55.614;37.326;2022-11-20T19:55:29;23.8;;;17.7;;
51515;SDS011;37603;55.614;37.326;2022-11-20T19:55:29;unavailable;;;unavailable;;
51515;SDS011;37603;55.614;37.326;2022-11-20T20:01:18;22.2;;;16.7;;
51515;SDS011;37603;55.614;37.326;2022-11-20T20:07:16;24.0;;;18.6;;
51515;SDS011;37603;55.614;37.326;2022-11-20T20:13:14;25.7;;;18.8;;
51515;SDS011;37603;55.614;37.326;2022-11-20T20:19:13;20.7;;;8.2;;
51515;SDS011;37603;55.614;37.326;2022-11-20T20:25:11;19.6;;;7.7;;
51515;SDS011;37603;55.614;37.326;2022-11-20T20:31:11;18.7;;;8.0;;
51515;SDS011;37603;55.614;37.326;2022-11-20T20:37:08;17.2;;;7.9;;
51515;SDS011;37603;55.614;37.326;2022-11-20T20:43:06;17.3;;;8.1;;
51515;SDS011;37603;55.614;37.326;2022-11-20T20:49:05;23.2;;;17.3;;
51515;SDS011;37603;55.614;37.326;2022-11-20T21:01:03;21.9;;;17.2;;
51515;SDS011;37603;55.614;37.326;2022-11-20T21:07:00;24.6;;;18.4;;
51515;SDS011;37603;55.614;37.326;2022-11-20T21:12:59;17.7;;;7.7;;
51515;SDS011;37603;55.614;37.326;2022-11-20T21:18:57;19.2;;;8.2;;
51515;SDS011;37603;55.614;37.326;2022-11-20T21:24:56;20.2;;;7.9;;
51515;SDS011;37603;55.614;37.326;2022-11-20T21:31:01;24.5;;;18.0;;
51515;SDS011;37603;55.614;37.326;2022-11-20T21:36:53;24.6;;;17.8;;
51515;SDS011;37603;55.614;37.326;2022-11-20T21:42:51;18.1;;;8.0;;
51515;SDS011;37603;55.614;37.326;2022-11-20T21:48:50;17.4;;;7.8;;
51515;SDS011;37603;55.614;37.326;2022-11-20T21:54:48;26.7;;;19.8;;
51515;SDS011;37603;55.614;37.326;2022-11-20T22:00:47;19.2;;;9.0;;
51515;SDS011;37603;55.614;37.326;2022-11-20T22:06:45;22.2;;;9.0;;
51515;SDS011;37603;55.614;37.326;2022-11-20T22:12:44;27.0;;;20.3;;
51515;SDS011;37603;55.614;37.326;2022-11-20T22:18:43;18.0;;;8.5;;
51515;SDS011;37603;55.614;37.326;2022-11-20T22:24:41;26.1;;;19.4;;
51515;SDS011;37603;55.614;37.326;2022-11-20T22:30:39;27.3;;;19.6;;
51515;SDS011;37603;55.614;37.326;2022-11-20T22:36:38;27.6;;;19.8;;
51515;SDS011;37603;55.614;37.326;2022-11-20T22:42:36;21.9;;;9.4;;
51515;SDS011;37603;55.614;37.326;2022-11-20T22:48:36;20.0;;;8.3;;
51515;SDS011;37603;55.614;37.326;2022-11-20T22:54:33;27.0;;;19.8;;
51515;SDS011;37603;55.614;37.326;2022-11-20T23:00:32;28.8;;;20.2;;
51515;SDS011;37603;55.614;37.326;2022-11-20T23:06:31;29.6;;;20.4;;
51515;SDS011;37603;55.614;37.326;2022-11-20T23:12:29;28.0;;;20.3;;
51515;SDS011;37603;55.614;37.326;2022-11-20T23:18:27;19.9;;;9.4;;
51515;SDS011;37603;55.614;37.326;2022-11-20T23:24:26;23.8;;;8.9;;
51515;SDS011;37603;55.614;37.326;2022-11-20T23:30:25;20.8;;;9.2;;
51515;SDS011;37603;55.614;37.326;2022-11-20T23:36:23;27.7;;;19.6;;
51515;SDS011;37603;55.614;37.326;2022-11-20T23:42:22;29.2;;;20.6;;
51515;SDS011;37603;55.614;37.326;2022-11-20T23:48:21;32.3;;;21.7;;
51515;SDS011;37603;55.614;37.326;2022-11-20T23:54:19;30.2;;;21.4;;
